sensor_id;sensor_type;location;lat;lon;timestamp;temperature;humidity
62912;DHT22;49111;51.028;4.218;2022-09-24T00:01:26;15.90;99.90
62912;DHT22;49111;51.028;4.218;2022-09-24T00:03:55;15.90;99.90
62912;DHT22;49111;51.028;4.218;2022-09-24T00:06:21;15.90;99.90
62912;DHT22;49111;51.028;4.218;2022-09-24T00:08:49;15.80;99.90
62912;DHT22;49111;51.028;4.218;2022-09-24T00:11:16;15.80;99.90
62912;DHT22;49111;51.028;4.218;2022-09-24T00:13:44;15.80;99.90
62912;DHT22;49111;51.028;4.218;2022-09-24T00:16:13;15.90;99.90
62912;DHT22;49111;51.028;4.218;2022-09-24T00:18:39;15.80;99.90
62912;DHT22;49111;51.028;4.218;2022-09-24T00:23:37;15.80;99.90
62912;DHT22;49111;51.028;4.218;2022-09-24T00:26:03;15.80;99.90
62912;DHT22;49111;51.028;4.218;2022-09-24T00:28:51;15.80;99.90
62912;DHT22;49111;51.028;4.218;2022-09-24T00:31:17;15.80;99.90
62912;DHT22;49111;51.028;4.218;2022-09-24T00:33:43;15.80;99.90
62912;DHT22;49111;51.028;4.218;2022-09-24T00:36:09;15.80;99.90
62912;DHT22;49111;51.028;4.218;2022-09-24T00:38:35;15.70;99.90
62912;DHT22;49111;51.028;4.218;2022-09-24T00:41:01;15.70;99.90
62912;DHT22;49111;51.028;4.218;2022-09-24T00:43:30;15.70;99.90
62912;DHT22;49111;51.028;4.218;2022-09-24T00:48:42;15.70;99.90
62912;DHT22;49111;51.028;4.218;2022-09-24T00:51:11;15.70;99.90
62912;DHT22;49111;51.028;4.218;2022-09-24T00:53:39;15.60;99.90
62912;DHT22;49111;51.028;4.218;2022-09-24T00:56:08;15.50;99.90
62912;DHT22;49111;51.028;4.218;2022-09-24T00:58:35;15.50;99.90
62912;DHT22;49111;51.028;4.218;2022-09-24T01:01:04;15.50;99.90
62912;DHT22;49111;51.028;4.218;2022-09-24T01:03:33;15.60;99.90
62912;DHT22;49111;51.028;4.218;2022-09-24T01:06:00;15.60;99.90
62912;DHT22;49111;51.028;4.218;2022-09-24T01:08:26;15.60;99.90
62912;DHT22;49111;51.028;4.218;2022-09-24T01:28:43;15.30;99.90
62912;DHT22;49111;51.028;4.218;2022-09-24T01:31:23;15.30;99.90
62912;DHT22;49111;51.028;4.218;2022-09-24T01:33:52;15.30;99.90
62912;DHT22;49111;51.028;4.218;2022-09-24T01:36:19;15.30;99.90
62912;DHT22;49111;51.028;4.218;2022-09-24T01:38:48;15.40;99.90
62912;DHT22;49111;51.028;4.218;2022-09-24T01:41:14;15.40;99.90
62912;DHT22;49111;51.028;4.218;2022-09-24T01:43:42;15.40;99.90
62912;DHT22;49111;51.028;4.218;2022-09-24T01:46:10;15.40;99.90
62912;DHT22;49111;51.028;4.218;2022-09-24T01:48:38;15.40;99.90
62912;DHT22;49111;51.028;4.218;2022-09-24T01:51:16;15.30;99.90
62912;DHT22;49111;51.028;4.218;2022-09-24T01:53:56;15.30;99.90
62912;DHT22;49111;51.028;4.218;2022-09-24T01:56:29;15.20;99.90
62912;DHT22;49111;51.028;4.218;2022-09-24T01:59:08;15.20;99.90
62912;DHT22;49111;51.028;4.218;2022-09-24T02:01:52;15.20;99.90
62912;DHT22;49111;51.028;4.218;2022-09-24T02:04:23;15.20;99.90
62912;DHT22;49111;51.028;4.218;2022-09-24T02:07:06;15.20;99.90
62912;DHT22;49111;51.028;4.218;2022-09-24T02:09:39;15.20;99.90
62912;DHT22;49111;51.028;4.218;2022-09-24T02:15:12;15.30;99.90
62912;DHT22;49111;51.028;4.218;2022-09-24T02:17:41;15.30;99.90
62912;DHT22;49111;51.028;4.218;2022-09-24T02:20:14;15.30;99.90
62912;DHT22;49111;51.028;4.218;2022-09-24T02:22:42;15.30;99.90
62912;DHT22;49111;51.028;4.218;2022-09-24T02:25:13;15.40;99.90
62912;DHT22;49111;51.028;4.218;2022-09-24T02:27:40;15.30;99.90
62912;DHT22;49111;51.028;4.218;2022-09-24T02:30:07;15.30;99.90
62912;DHT22;49111;51.028;4.218;2022-09-24T02:32:35;15.30;99.90
62912;DHT22;49111;51.028;4.218;2022-09-24T02:35:05;15.30;99.90
62912;DHT22;49111;51.028;4.218;2022-09-24T02:37:40;15.30;99.90
62912;DHT22;49111;51.028;4.218;2022-09-24T02:40:09;15.30;99.90
62912;DHT22;49111;51.028;4.218;2022-09-24T02:42:36;15.30;99.90
62912;DHT22;49111;51.028;4.218;2022-09-24T02:45:03;15.30;99.90
62912;DHT22;49111;51.028;4.218;2022-09-24T02:47:30;15.30;99.90
62912;DHT22;49111;51.028;4.218;2022-09-24T02:49:55;15.30;99.90
62912;DHT22;49111;51.028;4.218;2022-09-24T02:52:22;15.30;99.90
62912;DHT22;49111;51.028;4.218;2022-09-24T02:54:48;15.40;99.90
62912;DHT22;49111;51.028;4.218;2022-09-24T02:57:17;15.30;99.90
62912;DHT22;49111;51.028;4.218;2022-09-24T02:59:44;15.30;99.90
62912;DHT22;49111;51.028;4.218;2022-09-24T03:02:10;15.30;99.90
62912;DHT22;49111;51.028;4.218;2022-09-24T03:04:36;15.30;99.90
62912;DHT22;49111;51.028;4.218;2022-09-24T03:07:03;15.30;99.90
62912;DHT22;49111;51.028;4.218;2022-09-24T03:09:29;15.30;99.90
62912;DHT22;49111;51.028;4.218;2022-09-24T03:11:55;15.20;99.90
62912;DHT22;49111;51.028;4.218;2022-09-24T03:14:25;15.20;99.90
62912;DHT22;49111;51.028;4.218;2022-09-24T03:16:51;15.20;99.90
62912;DHT22;49111;51.028;4.218;2022-09-24T03:19:17;15.30;99.90
62912;DHT22;49111;51.028;4.218;2022-09-24T03:21:42;15.30;99.90
62912;DHT22;49111;51.028;4.218;2022-09-24T03:24:08;15.30;99.90
62912;DHT22;49111;51.028;4.218;2022-09-24T03:26:34;15.30;99.90
62912;DHT22;49111;51.028;4.218;2022-09-24T03:29:00;15.30;99.90
62912;DHT22;49111;51.028;4.218;2022-09-24T03:31:26;15.30;99.90
62912;DHT22;49111;51.028;4.218;2022-09-24T03:33:52;15.30;99.90
62912;DHT22;49111;51.028;4.218;2022-09-24T03:36:23;15.30;99.90
62912;DHT22;49111;51.028;4.218;2022-09-24T03:38:51;15.30;99.90
62912;DHT22;49111;51.028;4.218;2022-09-24T03:41:18;15.30;99.90
62912;DHT22;49111;51.028;4.218;2022-09-24T03:43:43;15.30;99.90
62912;DHT22;49111;51.028;4.218;2022-09-24T03:46:10;15.30;99.90
62912;DHT22;49111;51.028;4.218;2022-09-24T03:48:38;15.30;99.90
62912;DHT22;49111;51.028;4.218;2022-09-24T03:51:09;15.20;99.90
62912;DHT22;49111;51.028;4.218;2022-09-24T03:53:35;15.20;99.90
62912;DHT22;49111;51.028;4.218;2022-09-24T03:56:02;15.20;99.90
62912;DHT22;49111;51.028;4.218;2022-09-24T03:58:29;15.20;99.90
62912;DHT22;49111;51.028;4.218;2022-09-24T04:00:56;15.20;99.90
62912;DHT22;49111;51.028;4.218;2022-09-24T04:03:23;15.20;99.90
62912;DHT22;49111;51.028;4.218;2022-09-24T04:05:49;15.20;99.90
62912;DHT22;49111;51.028;4.218;2022-09-24T04:08:17;15.20;99.90
62912;DHT22;49111;51.028;4.218;2022-09-24T04:10:47;15.20;99.90
62912;DHT22;49111;51.028;4.218;2022-09-24T04:13:15;15.20;99.90
62912;DHT22;49111;51.028;4.218;2022-09-24T04:15:40;15.20;99.90
62912;DHT22;49111;51.028;4.218;2022-09-24T04:18:07;15.20;99.90
62912;DHT22;49111;51.028;4.218;2022-09-24T04:20:33;15.20;99.90
62912;DHT22;49111;51.028;4.218;2022-09-24T04:23:00;15.20;99.90
62912;DHT22;49111;51.028;4.218;2022-09-24T04:25:30;15.20;99.90
62912;DHT22;49111;51.028;4.218;2022-09-24T04:27:58;15.10;99.90
62912;DHT22;49111;51.028;4.218;2022-09-24T04:30:26;15.20;99.90
62912;DHT22;49111;51.028;4.218;2022-09-24T04:32:52;15.20;99.90
62912;DHT22;49111;51.028;4.218;2022-09-24T04:35:19;15.20;99.90
62912;DHT22;49111;51.028;4.218;2022-09-24T04:37:46;15.20;99.90
62912;DHT22;49111;51.028;4.218;2022-09-24T04:40:12;15.20;99.90
62912;DHT22;49111;51.028;4.218;2022-09-24T04:42:39;15.20;99.90
62912;DHT22;49111;51.028;4.218;2022-09-24T04:45:08;15.20;99.90
62912;DHT22;49111;51.028;4.218;2022-09-24T04:47:35;15.30;99.90
62912;DHT22;49111;51.028;4.218;2022-09-24T04:50:02;15.30;99.90
62912;DHT22;49111;51.028;4.218;2022-09-24T04:52:29;15.20;99.90
62912;DHT22;49111;51.028;4.218;2022-09-24T04:54:57;15.20;99.90
62912;DHT22;49111;51.028;4.218;2022-09-24T04:57:25;15.20;99.90
62912;DHT22;49111;51.028;4.218;2022-09-24T04:59:51;15.20;99.90
62912;DHT22;49111;51.028;4.218;2022-09-24T05:02:16;15.20;99.90
62912;DHT22;49111;51.028;4.218;2022-09-24T05:04:43;15.20;99.90
62912;DHT22;49111;51.028;4.218;2022-09-24T05:07:11;15.20;99.90
62912;DHT22;49111;51.028;4.218;2022-09-24T05:09:37;15.20;99.90
62912;DHT22;49111;51.028;4.218;2022-09-24T05:12:03;15.20;99.90
62912;DHT22;49111;51.028;4.218;2022-09-24T05:14:29;15.20;99.90
62912;DHT22;49111;51.028;4.218;2022-09-24T05:16:55;15.20;99.90
62912;DHT22;49111;51.028;4.218;2022-09-24T05:19:21;15.30;99.90
62912;DHT22;49111;51.028;4.218;2022-09-24T05:21:47;15.20;99.90
62912;DHT22;49111;51.028;4.218;2022-09-24T05:24:13;15.20;99.90
62912;DHT22;49111;51.028;4.218;2022-09-24T05:26:39;15.30;99.90
62912;DHT22;49111;51.028;4.218;2022-09-24T05:29:24;15.40;99.90
62912;DHT22;49111;51.028;4.218;2022-09-24T05:31:50;15.20;99.90
62912;DHT22;49111;51.028;4.218;2022-09-24T05:34:15;15.20;99.90
62912;DHT22;49111;51.028;4.218;2022-09-24T05:36:43;15.30;99.90
62912;DHT22;49111;51.028;4.218;2022-09-24T05:39:10;15.20;99.90
62912;DHT22;49111;51.028;4.218;2022-09-24T05:41:37;15.20;99.90
62912;DHT22;49111;51.028;4.218;2022-09-24T05:44:04;15.20;99.90
62912;DHT22;49111;51.028;4.218;2022-09-24T05:46:30;15.20;99.90
62912;DHT22;49111;51.028;4.218;2022-09-24T05:48:57;15.20;99.90
62912;DHT22;49111;51.028;4.218;2022-09-24T05:51:24;15.20;99.90
62912;DHT22;49111;51.028;4.218;2022-09-24T05:53:49;15.20;99.90
62912;DHT22;49111;51.028;4.218;2022-09-24T05:56:16;15.20;99.90
62912;DHT22;49111;51.028;4.218;2022-09-24T05:58:41;15.20;99.90
62912;DHT22;49111;51.028;4.218;2022-09-24T06:01:07;15.20;99.90
62912;DHT22;49111;51.028;4.218;2022-09-24T06:03:33;15.20;99.90
62912;DHT22;49111;51.028;4.218;2022-09-24T06:05:59;15.20;99.90
62912;DHT22;49111;51.028;4.218;2022-09-24T06:08:27;15.20;99.90
62912;DHT22;49111;51.028;4.218;2022-09-24T06:10:58;15.20;99.90
62912;DHT22;49111;51.028;4.218;2022-09-24T06:13:24;15.20;99.90
62912;DHT22;49111;51.028;4.218;2022-09-24T06:15:50;15.30;99.90
62912;DHT22;49111;51.028;4.218;2022-09-24T06:18:16;15.20;99.90
62912;DHT22;49111;51.028;4.218;2022-09-24T06:20:41;15.20;99.90
62912;DHT22;49111;51.028;4.218;2022-09-24T06:23:09;15.20;99.90
62912;DHT22;49111;51.028;4.218;2022-09-24T06:25:34;15.20;99.90
62912;DHT22;49111;51.028;4.218;2022-09-24T06:28:02;15.30;99.90
62912;DHT22;49111;51.028;4.218;2022-09-24T06:30:36;15.30;99.90
62912;DHT22;49111;51.028;4.218;2022-09-24T06:33:08;15.30;99.90
62912;DHT22;49111;51.028;4.218;2022-09-24T06:35:39;15.30;99.90
62912;DHT22;49111;51.028;4.218;2022-09-24T06:38:07;15.40;99.90
62912;DHT22;49111;51.028;4.218;2022-09-24T06:40:33;15.40;99.90
62912;DHT22;49111;51.028;4.218;2022-09-24T06:42:59;15.40;99.90
62912;DHT22;49111;51.028;4.218;2022-09-24T06:45:25;15.30;99.90
62912;DHT22;49111;51.028;4.218;2022-09-24T06:47:58;15.50;99.90
62912;DHT22;49111;51.028;4.218;2022-09-24T06:50:27;15.50;99.90
62912;DHT22;49111;51.028;4.218;2022-09-24T06:52:54;15.50;99.90
62912;DHT22;49111;51.028;4.218;2022-09-24T06:55:20;15.50;99.90
62912;DHT22;49111;51.028;4.218;2022-09-24T06:57:46;15.60;99.90
62912;DHT22;49111;51.028;4.218;2022-09-24T07:00:13;15.50;99.90
62912;DHT22;49111;51.028;4.218;2022-09-24T07:02:39;15.60;99.90
62912;DHT22;49111;51.028;4.218;2022-09-24T07:05:06;15.60;99.90
62912;DHT22;49111;51.028;4.218;2022-09-24T07:07:32;15.70;99.90
62912;DHT22;49111;51.028;4.218;2022-09-24T07:10:03;15.80;99.90
62912;DHT22;49111;51.028;4.218;2022-09-24T07:12:31;15.80;99.90
62912;DHT22;49111;51.028;4.218;2022-09-24T07:14:58;15.70;99.90
62912;DHT22;49111;51.028;4.218;2022-09-24T07:17:24;15.60;99.90
62912;DHT22;49111;51.028;4.218;2022-09-24T07:19:51;15.60;99.90
62912;DHT22;49111;51.028;4.218;2022-09-24T07:22:17;15.70;99.90
62912;DHT22;49111;51.028;4.218;2022-09-24T07:24:43;15.70;99.90
62912;DHT22;49111;51.028;4.218;2022-09-24T07:27:08;15.80;99.90
62912;DHT22;49111;51.028;4.218;2022-09-24T07:29:34;15.80;99.90
62912;DHT22;49111;51.028;4.218;2022-09-24T07:32:01;15.70;99.90
62912;DHT22;49111;51.028;4.218;2022-09-24T07:34:27;15.90;99.90
62912;DHT22;49111;51.028;4.218;2022-09-24T07:36:55;16.00;99.90
62912;DHT22;49111;51.028;4.218;2022-09-24T07:39:25;16.10;99.90
62912;DHT22;49111;51.028;4.218;2022-09-24T07:41:51;16.00;99.90
62912;DHT22;49111;51.028;4.218;2022-09-24T07:44:18;16.10;99.90
62912;DHT22;49111;51.028;4.218;2022-09-24T07:46:48;16.10;99.90
62912;DHT22;49111;51.028;4.218;2022-09-24T07:49:14;16.10;99.90
62912;DHT22;49111;51.028;4.218;2022-09-24T07:51:40;16.10;99.90
62912;DHT22;49111;51.028;4.218;2022-09-24T07:54:06;16.10;99.90
62912;DHT22;49111;51.028;4.218;2022-09-24T07:56:33;16.00;99.90
62912;DHT22;49111;51.028;4.218;2022-09-24T07:58:59;16.10;99.90
62912;DHT22;49111;51.028;4.218;2022-09-24T08:01:25;16.10;99.90
62912;DHT22;49111;51.028;4.218;2022-09-24T08:03:52;16.10;99.90
62912;DHT22;49111;51.028;4.218;2022-09-24T08:06:19;16.10;99.90
62912;DHT22;49111;51.028;4.218;2022-09-24T08:08:51;16.00;99.90
62912;DHT22;49111;51.028;4.218;2022-09-24T08:11:21;15.90;99.90
62912;DHT22;49111;51.028;4.218;2022-09-24T08:13:47;15.90;99.90
62912;DHT22;49111;51.028;4.218;2022-09-24T08:16:13;15.90;99.90
62912;DHT22;49111;51.028;4.218;2022-09-24T08:18:41;15.70;99.90
62912;DHT22;49111;51.028;4.218;2022-09-24T08:21:09;15.80;99.90
62912;DHT22;49111;51.028;4.218;2022-09-24T08:23:40;15.70;99.90
62912;DHT22;49111;51.028;4.218;2022-09-24T08:26:07;15.80;99.90
62912;DHT22;49111;51.028;4.218;2022-09-24T08:28:33;15.80;99.90
62912;DHT22;49111;51.028;4.218;2022-09-24T08:31:00;15.70;99.90
62912;DHT22;49111;51.028;4.218;2022-09-24T08:33:27;15.70;99.90
62912;DHT22;49111;51.028;4.218;2022-09-24T08:35:53;15.80;99.90
62912;DHT22;49111;51.028;4.218;2022-09-24T08:38:19;15.80;99.90
62912;DHT22;49111;51.028;4.218;2022-09-24T08:41:42;15.80;99.90
62912;DHT22;49111;51.028;4.218;2022-09-24T08:44:04;15.90;99.90
62912;DHT22;49111;51.028;4.218;2022-09-24T08:46:43;15.90;99.90
62912;DHT22;49111;51.028;4.218;2022-09-24T08:49:44;16.00;99.90
62912;DHT22;49111;51.028;4.218;2022-09-24T08:55:00;15.80;99.90
62912;DHT22;49111;51.028;4.218;2022-09-24T08:57:43;15.80;99.90
62912;DHT22;49111;51.028;4.218;2022-09-24T09:00:14;15.80;99.90
62912;DHT22;49111;51.028;4.218;2022-09-24T09:03:08;15.80;99.90
62912;DHT22;49111;51.028;4.218;2022-09-24T09:06:24;15.70;99.90
62912;DHT22;49111;51.028;4.218;2022-09-24T09:09:06;15.70;99.90
62912;DHT22;49111;51.028;4.218;2022-09-24T09:11:35;15.70;99.90
62912;DHT22;49111;51.028;4.218;2022-09-24T09:14:13;15.70;99.90
62912;DHT22;49111;51.028;4.218;2022-09-24T09:19:14;15.70;99.90
62912;DHT22;49111;51.028;4.218;2022-09-24T09:21:53;15.70;99.90
62912;DHT22;49111;51.028;4.218;2022-09-24T09:24:25;15.70;99.90
62912;DHT22;49111;51.028;4.218;2022-09-24T09:26:54;15.80;99.90
62912;DHT22;49111;51.028;4.218;2022-09-24T09:29:24;15.80;99.90
62912;DHT22;49111;51.028;4.218;2022-09-24T09:32:11;15.70;99.90
62912;DHT22;49111;51.028;4.218;2022-09-24T09:37:27;15.80;99.90
62912;DHT22;49111;51.028;4.218;2022-09-24T09:42:35;15.70;99.90
62912;DHT22;49111;51.028;4.218;2022-09-24T09:45:25;15.80;99.90
62912;DHT22;49111;51.028;4.218;2022-09-24T09:47:52;15.70;99.90
62912;DHT22;49111;51.028;4.218;2022-09-24T09:50:36;15.70;99.90
62912;DHT22;49111;51.028;4.218;2022-09-24T09:53:04;15.70;99.90
62912;DHT22;49111;51.028;4.218;2022-09-24T09:55:39;15.80;99.90
62912;DHT22;49111;51.028;4.218;2022-09-24T10:00:40;15.90;99.90
62912;DHT22;49111;51.028;4.218;2022-09-24T10:03:30;15.90;99.90
62912;DHT22;49111;51.028;4.218;2022-09-24T10:06:05;15.90;99.90
62912;DHT22;49111;51.028;4.218;2022-09-24T10:08:32;16.00;99.90
62912;DHT22;49111;51.028;4.218;2022-09-24T10:11:00;16.00;99.90
62912;DHT22;49111;51.028;4.218;2022-09-24T10:13:26;16.00;99.90
62912;DHT22;49111;51.028;4.218;2022-09-24T10:15:55;16.00;99.90
62912;DHT22;49111;51.028;4.218;2022-09-24T10:18:32;16.00;99.90
62912;DHT22;49111;51.028;4.218;2022-09-24T10:21:01;16.10;99.90
62912;DHT22;49111;51.028;4.218;2022-09-24T10:23:40;16.10;99.90
62912;DHT22;49111;51.028;4.218;2022-09-24T10:26:07;16.10;99.90
62912;DHT22;49111;51.028;4.218;2022-09-24T10:28:38;16.10;99.90
62912;DHT22;49111;51.028;4.218;2022-09-24T10:31:25;16.10;99.90
62912;DHT22;49111;51.028;4.218;2022-09-24T10:33:55;16.00;99.90
62912;DHT22;49111;51.028;4.218;2022-09-24T10:36:23;15.90;99.90
62912;DHT22;49111;51.028;4.218;2022-09-24T10:41:31;16.00;99.90
62912;DHT22;49111;51.028;4.218;2022-09-24T10:44:02;15.90;99.90
62912;DHT22;49111;51.028;4.218;2022-09-24T10:49:46;15.90;99.90
62912;DHT22;49111;51.028;4.218;2022-09-24T10:55:05;16.00;99.90
62912;DHT22;49111;51.028;4.218;2022-09-24T10:57:39;16.10;99.90
62912;DHT22;49111;51.028;4.218;2022-09-24T11:00:20;16.10;99.90
62912;DHT22;49111;51.028;4.218;2022-09-24T11:05:36;16.10;99.90
62912;DHT22;49111;51.028;4.218;2022-09-24T11:08:45;16.20;99.90
62912;DHT22;49111;51.028;4.218;2022-09-24T11:11:31;16.20;99.90
62912;DHT22;49111;51.028;4.218;2022-09-24T11:14:12;16.30;99.90
62912;DHT22;49111;51.028;4.218;2022-09-24T11:22:14;16.40;99.90
62912;DHT22;49111;51.028;4.218;2022-09-24T11:33:48;16.50;99.90
62912;DHT22;49111;51.028;4.218;2022-09-24T11:36:29;16.60;99.90
62912;DHT22;49111;51.028;4.218;2022-09-24T11:42:07;16.60;99.90
62912;DHT22;49111;51.028;4.218;2022-09-24T11:55:51;16.70;99.90
62912;DHT22;49111;51.028;4.218;2022-09-24T11:58:33;16.60;99.90
62912;DHT22;49111;51.028;4.218;2022-09-24T12:01:12;16.60;99.90
62912;DHT22;49111;51.028;4.218;2022-09-24T12:06:37;16.60;99.90
62912;DHT22;49111;51.028;4.218;2022-09-24T12:15:05;16.50;99.90
62912;DHT22;49111;51.028;4.218;2022-09-24T12:17:41;16.50;99.90
62912;DHT22;49111;51.028;4.218;2022-09-24T12:20:22;16.40;99.90
62912;DHT22;49111;51.028;4.218;2022-09-24T12:23:03;16.40;99.90
62912;DHT22;49111;51.028;4.218;2022-09-24T12:25:45;16.30;99.90
62912;DHT22;49111;51.028;4.218;2022-09-24T12:28:13;16.30;99.90
62912;DHT22;49111;51.028;4.218;2022-09-24T12:30:53;16.20;99.90
62912;DHT22;49111;51.028;4.218;2022-09-24T12:34:06;16.10;99.90
62912;DHT22;49111;51.028;4.218;2022-09-24T12:36:40;16.10;99.90
62912;DHT22;49111;51.028;4.218;2022-09-24T12:39:10;16.10;99.90
62912;DHT22;49111;51.028;4.218;2022-09-24T12:41:43;16.10;99.90
62912;DHT22;49111;51.028;4.218;2022-09-24T12:44:18;16.10;99.90
62912;DHT22;49111;51.028;4.218;2022-09-24T12:46:54;16.10;99.90
62912;DHT22;49111;51.028;4.218;2022-09-24T12:51:56;16.20;99.90
62912;DHT22;49111;51.028;4.218;2022-09-24T12:54:33;16.20;99.90
62912;DHT22;49111;51.028;4.218;2022-09-24T12:57:19;16.20;99.90
62912;DHT22;49111;51.028;4.218;2022-09-24T12:59:54;16.20;99.90
62912;DHT22;49111;51.028;4.218;2022-09-24T13:02:50;16.20;99.90
62912;DHT22;49111;51.028;4.218;2022-09-24T13:08:23;16.20;99.90
62912;DHT22;49111;51.028;4.218;2022-09-24T13:10:55;16.20;99.90
62912;DHT22;49111;51.028;4.218;2022-09-24T13:13:26;16.10;99.90
62912;DHT22;49111;51.028;4.218;2022-09-24T13:16:13;16.00;99.90
62912;DHT22;49111;51.028;4.218;2022-09-24T13:18:41;15.80;99.90
62912;DHT22;49111;51.028;4.218;2022-09-24T13:21:18;15.80;99.90
62912;DHT22;49111;51.028;4.218;2022-09-24T13:23:46;15.90;99.90
62912;DHT22;49111;51.028;4.218;2022-09-24T13:26:28;15.80;99.90
62912;DHT22;49111;51.028;4.218;2022-09-24T13:28:55;15.90;99.90
62912;DHT22;49111;51.028;4.218;2022-09-24T13:36:49;15.80;99.90
62912;DHT22;49111;51.028;4.218;2022-09-24T13:39:52;15.70;99.90
62912;DHT22;49111;51.028;4.218;2022-09-24T13:42:37;15.70;99.90
62912;DHT22;49111;51.028;4.218;2022-09-24T13:45:17;15.70;99.90
62912;DHT22;49111;51.028;4.218;2022-09-24T13:47:47;15.70;99.90
62912;DHT22;49111;51.028;4.218;2022-09-24T13:52:56;15.60;99.90
62912;DHT22;49111;51.028;4.218;2022-09-24T13:55:38;15.60;99.90
62912;DHT22;49111;51.028;4.218;2022-09-24T13:58:34;15.60;99.90
62912;DHT22;49111;51.028;4.218;2022-09-24T14:01:03;15.60;99.90
62912;DHT22;49111;51.028;4.218;2022-09-24T14:03:31;15.60;99.90
62912;DHT22;49111;51.028;4.218;2022-09-24T14:05:58;15.60;99.90
62912;DHT22;49111;51.028;4.218;2022-09-24T14:08:26;15.60;99.90
62912;DHT22;49111;51.028;4.218;2022-09-24T14:11:22;15.70;99.90
62912;DHT22;49111;51.028;4.218;2022-09-24T14:13:53;15.70;99.90
62912;DHT22;49111;51.028;4.218;2022-09-24T14:16:24;15.70;99.90
62912;DHT22;49111;51.028;4.218;2022-09-24T14:19:04;15.80;99.90
62912;DHT22;49111;51.028;4.218;2022-09-24T14:21:52;15.80;99.90
62912;DHT22;49111;51.028;4.218;2022-09-24T14:24:31;15.80;99.90
62912;DHT22;49111;51.028;4.218;2022-09-24T14:27:05;15.70;99.90
62912;DHT22;49111;51.028;4.218;2022-09-24T14:29:45;15.60;99.90
62912;DHT22;49111;51.028;4.218;2022-09-24T14:32:39;15.50;99.90
62912;DHT22;49111;51.028;4.218;2022-09-24T14:35:16;15.30;99.90
62912;DHT22;49111;51.028;4.218;2022-09-24T14:37:49;15.30;99.90
62912;DHT22;49111;51.028;4.218;2022-09-24T14:40:18;15.40;99.90
62912;DHT22;49111;51.028;4.218;2022-09-24T14:42:56;15.40;99.90
62912;DHT22;49111;51.028;4.218;2022-09-24T14:45:28;15.40;99.90
62912;DHT22;49111;51.028;4.218;2022-09-24T14:48:18;15.40;99.90
62912;DHT22;49111;51.028;4.218;2022-09-24T14:50:45;15.40;99.90
62912;DHT22;49111;51.028;4.218;2022-09-24T14:56:19;15.40;99.90
62912;DHT22;49111;51.028;4.218;2022-09-24T14:58:45;15.40;99.90
62912;DHT22;49111;51.028;4.218;2022-09-24T15:01:14;15.40;99.90
62912;DHT22;49111;51.028;4.218;2022-09-24T15:03:52;15.40;99.90
62912;DHT22;49111;51.028;4.218;2022-09-24T15:06:30;15.40;99.90
62912;DHT22;49111;51.028;4.218;2022-09-24T15:09:06;15.40;99.90
62912;DHT22;49111;51.028;4.218;2022-09-24T15:11:40;15.40;99.90
62912;DHT22;49111;51.028;4.218;2022-09-24T15:14:18;15.50;99.90
62912;DHT22;49111;51.028;4.218;2022-09-24T15:16:50;15.50;99.90
62912;DHT22;49111;51.028;4.218;2022-09-24T15:19:21;15.50;99.90
62912;DHT22;49111;51.028;4.218;2022-09-24T15:21:52;15.50;99.90
62912;DHT22;49111;51.028;4.218;2022-09-24T15:24:18;15.50;99.90
62912;DHT22;49111;51.028;4.218;2022-09-24T15:29:27;15.30;99.90
62912;DHT22;49111;51.028;4.218;2022-09-24T15:31:53;15.30;99.90
62912;DHT22;49111;51.028;4.218;2022-09-24T15:34:21;15.30;99.90
62912;DHT22;49111;51.028;4.218;2022-09-24T15:36:48;15.20;99.90
62912;DHT22;49111;51.028;4.218;2022-09-24T15:39:17;15.10;99.90
62912;DHT22;49111;51.028;4.218;2022-09-24T15:41:43;15.10;99.90
62912;DHT22;49111;51.028;4.218;2022-09-24T15:44:20;15.10;99.90
62912;DHT22;49111;51.028;4.218;2022-09-24T15:46:48;15.20;99.90
62912;DHT22;49111;51.028;4.218;2022-09-24T15:49:20;15.10;99.90
62912;DHT22;49111;51.028;4.218;2022-09-24T15:51:52;15.10;99.90
62912;DHT22;49111;51.028;4.218;2022-09-24T15:54:19;15.10;99.90
62912;DHT22;49111;51.028;4.218;2022-09-24T15:56:46;15.20;99.90
62912;DHT22;49111;51.028;4.218;2022-09-24T15:59:17;15.20;99.90
62912;DHT22;49111;51.028;4.218;2022-09-24T16:01:45;15.10;99.90
62912;DHT22;49111;51.028;4.218;2022-09-24T16:04:11;15.20;99.90
62912;DHT22;49111;51.028;4.218;2022-09-24T16:06:37;15.20;99.90
62912;DHT22;49111;51.028;4.218;2022-09-24T16:09:03;15.20;99.90
62912;DHT22;49111;51.028;4.218;2022-09-24T16:11:30;15.20;99.90
62912;DHT22;49111;51.028;4.218;2022-09-24T16:13:56;15.20;99.90
62912;DHT22;49111;51.028;4.218;2022-09-24T16:16:22;15.20;99.90
62912;DHT22;49111;51.028;4.218;2022-09-24T16:18:47;15.30;99.90
62912;DHT22;49111;51.028;4.218;2022-09-24T16:21:13;15.40;99.90
62912;DHT22;49111;51.028;4.218;2022-09-24T16:23:39;15.40;99.90
62912;DHT22;49111;51.028;4.218;2022-09-24T16:26:05;15.40;99.90
62912;DHT22;49111;51.028;4.218;2022-09-24T16:28:31;15.40;99.90
62912;DHT22;49111;51.028;4.218;2022-09-24T16:30:57;15.40;99.90
62912;DHT22;49111;51.028;4.218;2022-09-24T16:33:24;15.50;99.90
62912;DHT22;49111;51.028;4.218;2022-09-24T16:35:50;15.40;99.90
62912;DHT22;49111;51.028;4.218;2022-09-24T16:38:17;15.30;99.90
62912;DHT22;49111;51.028;4.218;2022-09-24T16:40:43;15.20;99.90
62912;DHT22;49111;51.028;4.218;2022-09-24T16:43:09;15.20;99.90
62912;DHT22;49111;51.028;4.218;2022-09-24T16:45:35;15.20;99.90
62912;DHT22;49111;51.028;4.218;2022-09-24T16:48:01;15.20;99.90
62912;DHT22;49111;51.028;4.218;2022-09-24T16:50:27;15.30;99.90
62912;DHT22;49111;51.028;4.218;2022-09-24T16:52:53;15.30;99.90
62912;DHT22;49111;51.028;4.218;2022-09-24T16:55:22;15.30;99.90
62912;DHT22;49111;51.028;4.218;2022-09-24T16:57:51;15.30;99.90
62912;DHT22;49111;51.028;4.218;2022-09-24T17:00:17;15.30;99.90
62912;DHT22;49111;51.028;4.218;2022-09-24T17:02:44;15.20;99.90
62912;DHT22;49111;51.028;4.218;2022-09-24T17:05:09;15.20;99.90
62912;DHT22;49111;51.028;4.218;2022-09-24T17:07:35;15.20;99.90
62912;DHT22;49111;51.028;4.218;2022-09-24T17:10:01;15.20;99.90
62912;DHT22;49111;51.028;4.218;2022-09-24T17:12:48;15.20;99.90
62912;DHT22;49111;51.028;4.218;2022-09-24T17:15:15;15.20;99.90
62912;DHT22;49111;51.028;4.218;2022-09-24T17:17:42;15.10;99.90
62912;DHT22;49111;51.028;4.218;2022-09-24T17:20:08;15.00;99.90
62912;DHT22;49111;51.028;4.218;2022-09-24T17:22:35;15.20;99.90
62912;DHT22;49111;51.028;4.218;2022-09-24T17:25:04;15.10;99.90
62912;DHT22;49111;51.028;4.218;2022-09-24T17:27:31;15.20;99.90
62912;DHT22;49111;51.028;4.218;2022-09-24T17:30:00;15.20;99.90
62912;DHT22;49111;51.028;4.218;2022-09-24T17:32:26;15.20;99.90
62912;DHT22;49111;51.028;4.218;2022-09-24T17:34:52;15.20;99.90
62912;DHT22;49111;51.028;4.218;2022-09-24T17:37:18;15.20;99.90
62912;DHT22;49111;51.028;4.218;2022-09-24T17:39:44;15.20;99.90